createdAt,value
2023-04-30T00:00:58.366Z,2.23
2023-04-30T00:03:45.181Z,2.83
2023-04-30T00:06:31.985Z,2.50
2023-04-30T00:09:18.771Z,2.80
2023-04-30T00:12:07.282Z,2.90
2023-04-30T00:14:56.453Z,2.93
2023-04-30T00:17:43.020Z,2.73
2023-04-30T00:20:29.890Z,2.50
2023-04-30T00:23:16.621Z,2.33
2023-04-30T00:26:03.430Z,2.93
2023-04-30T00:28:51.596Z,2.37
2023-04-30T00:31:38.425Z,2.80
2023-04-30T00:34:25.201Z,2.40
2023-04-30T00:37:12.054Z,2.57
2023-04-30T00:39:58.801Z,2.60
2023-04-30T00:42:45.461Z,2.40
2023-04-30T00:45:33.866Z,2.50
2023-04-30T00:48:20.631Z,2.70
2023-04-30T00:51:08.704Z,2.30
2023-04-30T00:53:55.617Z,2.30
2023-04-30T00:56:44.559Z,2.40
2023-04-30T00:59:33.075Z,3.03
2023-04-30T01:02:21.328Z,2.10
2023-04-30T01:05:11.194Z,1.90
2023-04-30T01:08:04.910Z,2.50
2023-04-30T01:11:08.349Z,2.23
2023-04-30T01:14:03.979Z,2.47
2023-04-30T01:16:55.297Z,2.30
2023-04-30T01:19:45.421Z,2.53
2023-04-30T01:22:38.479Z,2.70
2023-04-30T01:25:53.489Z,2.73
2023-04-30T01:28:43.915Z,2.70
2023-04-30T01:31:31.419Z,2.03
2023-04-30T01:34:17.895Z,3.07
2023-04-30T01:37:16.548Z,2.70
2023-04-30T01:40:21.850Z,2.60
2023-04-30T01:43:19.531Z,2.33
2023-04-30T01:46:19.903Z,2.47
2023-04-30T01:49:15.038Z,2.50
2023-04-30T01:52:07.388Z,2.50
2023-04-30T01:55:00.535Z,2.47
2023-04-30T01:57:54.193Z,2.90
2023-04-30T02:00:41.074Z,2.33
2023-04-30T02:03:29.367Z,3.23
2023-04-30T02:06:17.067Z,2.33
2023-04-30T02:09:05.554Z,2.20
2023-04-30T02:11:52.378Z,2.57
2023-04-30T02:14:39.157Z,2.23
2023-04-30T02:17:26.015Z,2.50
2023-04-30T02:20:14.564Z,2.57
2023-04-30T02:23:01.287Z,2.30
2023-04-30T02:25:48.172Z,2.47
2023-04-30T02:28:34.895Z,3.63
2023-04-30T02:31:21.664Z,2.43
2023-04-30T02:34:08.311Z,2.40
2023-04-30T02:36:56.648Z,2.40
2023-04-30T02:39:44.106Z,2.50
2023-04-30T02:42:30.643Z,2.50
2023-04-30T02:45:17.743Z,2.17
2023-04-30T02:48:04.772Z,2.43
2023-04-30T02:50:51.176Z,2.17
2023-04-30T02:53:39.334Z,2.67
2023-04-30T02:56:26.037Z,2.10
2023-04-30T02:59:13.294Z,2.53
2023-04-30T03:02:00.032Z,2.50
2023-04-30T03:04:46.809Z,2.43
2023-04-30T03:07:33.749Z,2.53
2023-04-30T03:10:21.948Z,2.50
2023-04-30T03:13:08.953Z,2.70
2023-04-30T03:15:59.605Z,2.43
2023-04-30T03:18:46.411Z,2.53
2023-04-30T03:21:33.145Z,3.13
2023-04-30T03:24:20.147Z,2.60
2023-04-30T03:27:08.094Z,2.33
2023-04-30T03:29:55.004Z,3.00
2023-04-30T03:32:41.761Z,2.70
2023-04-30T03:35:28.572Z,2.93
2023-04-30T03:38:15.539Z,2.47
2023-04-30T03:41:02.197Z,3.17
2023-04-30T03:43:50.377Z,2.50
2023-04-30T03:46:37.042Z,2.83
2023-04-30T03:49:23.802Z,2.60
2023-04-30T03:52:11.381Z,2.47
2023-04-30T03:54:57.780Z,2.80
2023-04-30T03:57:44.703Z,2.63
2023-04-30T04:00:33.334Z,2.67
2023-04-30T04:03:20.529Z,2.97
2023-04-30T04:06:07.343Z,2.50
2023-04-30T04:08:54.620Z,2.90
2023-04-30T04:11:42.351Z,2.57
2023-04-30T04:14:29.035Z,2.67
2023-04-30T04:17:17.190Z,3.33
2023-04-30T04:20:06.271Z,2.60
2023-04-30T04:22:54.292Z,2.70
2023-04-30T04:25:41.823Z,3.30
2023-04-30T04:28:28.686Z,2.73
2023-04-30T04:31:15.969Z,2.43
2023-04-30T04:34:05.258Z,2.70
2023-04-30T04:36:51.975Z,2.57
2023-04-30T04:39:39.310Z,2.23
2023-04-30T04:42:26.026Z,2.50
2023-04-30T04:45:13.053Z,2.83
2023-04-30T04:47:59.796Z,2.67
2023-04-30T04:50:48.422Z,2.93
2023-04-30T04:53:35.206Z,2.50
2023-04-30T04:56:22.029Z,2.60
2023-04-30T04:59:08.864Z,2.70
2023-04-30T05:01:55.652Z,2.30
2023-04-30T05:04:42.380Z,2.73
2023-04-30T05:07:30.550Z,2.60
2023-04-30T05:10:17.401Z,2.40
2023-04-30T05:13:04.245Z,2.20
2023-04-30T05:15:53.486Z,2.40
2023-04-30T05:18:40.613Z,1.90
2023-04-30T05:21:29.753Z,2.07
2023-04-30T05:24:17.885Z,2.27
2023-04-30T05:27:05.659Z,1.80
2023-04-30T05:29:52.351Z,2.10
2023-04-30T05:32:39.001Z,2.20
2023-04-30T05:35:25.830Z,2.03
2023-04-30T05:38:12.637Z,2.03
2023-04-30T05:41:01.162Z,2.37
2023-04-30T05:43:47.930Z,2.13
2023-04-30T05:46:35.393Z,2.33
2023-04-30T05:49:22.194Z,2.80
2023-04-30T05:52:08.954Z,2.30
2023-04-30T05:54:55.637Z,2.40
2023-04-30T05:57:43.799Z,1.93
2023-04-30T06:00:30.548Z,2.30
2023-04-30T06:03:17.380Z,2.53
2023-04-30T06:06:04.740Z,2.20
2023-04-30T06:08:51.420Z,2.43
2023-04-30T06:11:39.022Z,3.00
2023-04-30T06:14:28.197Z,2.63
2023-04-30T06:17:16.048Z,2.73
2023-04-30T06:20:07.075Z,2.00
2023-04-30T06:22:53.573Z,2.83
2023-04-30T06:25:40.528Z,2.53
2023-04-30T06:28:27.090Z,2.43
2023-04-30T06:31:15.502Z,2.00
2023-04-30T06:34:02.268Z,2.50
2023-04-30T06:36:49.063Z,3.00
2023-04-30T06:39:36.220Z,2.83
2023-04-30T06:42:22.840Z,2.60
2023-04-30T06:45:10.997Z,2.70
2023-04-30T06:47:59.654Z,2.60
2023-04-30T06:50:46.243Z,2.60
2023-04-30T06:53:32.926Z,2.60
2023-04-30T06:56:22.073Z,2.40
2023-04-30T06:59:08.849Z,2.50
2023-04-30T07:01:55.673Z,2.70
2023-04-30T07:04:43.821Z,2.20
2023-04-30T07:07:30.646Z,2.67
2023-04-30T07:10:17.334Z,2.53
2023-04-30T07:13:04.172Z,2.70
2023-04-30T07:15:51.795Z,2.37
2023-04-30T07:18:39.731Z,2.93
2023-04-30T07:21:28.052Z,2.30
2023-04-30T07:24:14.801Z,3.03
2023-04-30T07:27:03.863Z,3.67
2023-04-30T07:29:50.582Z,2.50
2023-04-30T07:32:37.900Z,2.67
2023-04-30T07:35:24.823Z,2.30
2023-04-30T07:38:12.857Z,2.33
2023-04-30T07:40:59.492Z,2.87
2023-04-30T07:43:46.404Z,2.43
2023-04-30T07:46:33.452Z,2.27
2023-04-30T07:49:20.013Z,2.53
2023-04-30T07:52:11.014Z,2.73
2023-04-30T07:54:58.898Z,2.13
2023-04-30T07:57:45.881Z,2.00
2023-04-30T08:00:32.403Z,1.57
2023-04-30T08:03:20.164Z,2.00
2023-04-30T08:06:07.228Z,2.03
2023-04-30T08:08:53.902Z,2.20
2023-04-30T08:11:41.923Z,1.83
2023-04-30T08:14:28.805Z,2.27
2023-04-30T08:17:15.772Z,1.70
2023-04-30T08:20:02.723Z,2.33
2023-04-30T08:22:49.507Z,2.10
2023-04-30T08:25:36.246Z,1.90
2023-04-30T08:28:24.537Z,2.10
2023-04-30T08:31:11.325Z,2.00
2023-04-30T08:33:57.959Z,2.60
2023-04-30T08:36:44.786Z,2.03
2023-04-30T08:39:31.667Z,2.37
2023-04-30T08:42:20.213Z,2.03
2023-04-30T08:45:12.960Z,2.00
2023-04-30T08:48:01.612Z,2.17
2023-04-30T08:50:48.264Z,2.20
2023-04-30T08:53:37.919Z,2.07
2023-04-30T08:56:25.523Z,1.67
2023-04-30T08:59:13.551Z,2.70
2023-04-30T09:02:03.004Z,2.10
2023-04-30T09:04:50.652Z,1.87
2023-04-30T09:07:41.498Z,1.90
2023-04-30T09:10:34.068Z,1.53
2023-04-30T09:13:20.919Z,1.83
2023-04-30T09:16:08.297Z,2.13
2023-04-30T09:18:56.806Z,2.00
2023-04-30T09:21:43.319Z,1.80
2023-04-30T09:24:48.142Z,2.30
2023-04-30T09:27:35.064Z,1.77
2023-04-30T09:30:32.392Z,2.03
2023-04-30T09:33:20.413Z,1.83
2023-04-30T09:36:11.801Z,2.17
2023-04-30T09:38:58.705Z,1.73
2023-04-30T09:41:46.275Z,2.30
2023-04-30T09:44:33.723Z,2.00
2023-04-30T09:47:21.651Z,2.00
2023-04-30T09:50:08.966Z,2.00
2023-04-30T09:53:07.124Z,1.70
2023-04-30T09:55:54.527Z,1.97
2023-04-30T09:58:48.692Z,2.07
2023-04-30T10:01:40.345Z,1.80
2023-04-30T10:04:29.137Z,1.80
2023-04-30T10:07:21.576Z,2.50
2023-04-30T10:10:12.097Z,2.50
2023-04-30T10:13:07.161Z,2.00
2023-04-30T10:15:59.048Z,2.00
2023-04-30T10:18:49.032Z,2.40
2023-04-30T10:21:36.430Z,1.93
2023-04-30T10:24:23.461Z,2.13
2023-04-30T10:27:11.899Z,2.27
2023-04-30T10:30:00.284Z,2.10
2023-04-30T10:32:54.594Z,1.90
2023-04-30T10:35:48.475Z,2.30
2023-04-30T10:38:37.201Z,2.00
2023-04-30T10:41:23.967Z,1.90
2023-04-30T10:44:12.195Z,2.00
2023-04-30T10:47:00.931Z,2.23
2023-04-30T10:49:49.156Z,1.97
2023-04-30T10:52:35.901Z,2.00
2023-04-30T10:55:22.835Z,2.20
2023-04-30T10:58:25.504Z,2.57
2023-04-30T11:01:14.857Z,2.50
2023-04-30T11:04:09.343Z,1.80
2023-04-30T11:07:02.312Z,1.93
2023-04-30T11:09:50.158Z,2.17
2023-04-30T11:12:42.693Z,1.83
2023-04-30T11:15:40.896Z,1.97
2023-04-30T11:18:29.872Z,1.90
2023-04-30T11:21:16.695Z,2.20
2023-04-30T11:24:05.234Z,1.80
2023-04-30T11:27:05.578Z,1.90
2023-04-30T11:29:53.663Z,1.60
2023-04-30T11:32:41.271Z,1.50
2023-04-30T11:35:29.985Z,2.30
2023-04-30T11:38:18.424Z,1.93
2023-04-30T11:41:05.993Z,2.07
2023-04-30T11:43:52.677Z,1.70
2023-04-30T11:46:39.428Z,2.40
2023-04-30T11:49:26.164Z,1.70
2023-04-30T11:52:15.564Z,1.90
2023-04-30T11:55:02.442Z,2.40
2023-04-30T11:57:50.975Z,1.90
2023-04-30T12:00:38.156Z,2.03
2023-04-30T12:03:25.129Z,2.23
2023-04-30T12:06:13.084Z,1.90
2023-04-30T12:09:04.740Z,1.80
2023-04-30T12:11:51.508Z,1.57
2023-04-30T12:14:38.354Z,2.00
2023-04-30T12:17:35.830Z,1.90
2023-04-30T12:20:23.904Z,2.23
2023-04-30T12:23:10.855Z,1.77
2023-04-30T12:26:00.910Z,1.40
2023-04-30T12:28:49.516Z,1.60
2023-04-30T12:31:37.558Z,2.00
2023-04-30T12:34:28.452Z,1.93
2023-04-30T12:37:16.533Z,1.77
2023-04-30T12:40:03.642Z,2.00
2023-04-30T12:42:51.766Z,1.73
2023-04-30T12:45:46.872Z,2.30
2023-04-30T12:48:45.120Z,2.13
2023-04-30T12:51:34.640Z,1.80
2023-04-30T12:54:28.989Z,1.70
2023-04-30T12:57:15.623Z,2.07
2023-04-30T13:00:05.644Z,1.67
2023-04-30T13:02:52.493Z,1.70
2023-04-30T13:05:39.396Z,2.80
2023-04-30T13:08:26.362Z,1.83
2023-04-30T13:11:12.727Z,1.80
2023-04-30T13:13:59.744Z,1.90
2023-04-30T13:16:47.917Z,1.70
2023-04-30T13:19:34.758Z,1.80
2023-04-30T13:22:21.333Z,1.90
2023-04-30T13:25:08.813Z,1.80
2023-04-30T13:27:55.476Z,1.83
2023-04-30T13:30:42.126Z,1.47
2023-04-30T13:33:30.613Z,1.67
2023-04-30T13:36:17.318Z,1.87
2023-04-30T13:39:04.907Z,1.83
2023-04-30T13:41:51.363Z,1.87
2023-04-30T13:44:39.098Z,1.60
2023-04-30T13:47:25.818Z,2.00
2023-04-30T13:50:14.037Z,2.10
2023-04-30T13:53:01.001Z,1.90
2023-04-30T13:55:47.656Z,2.10
2023-04-30T13:58:34.559Z,1.90
2023-04-30T14:01:21.503Z,1.57
2023-04-30T14:04:08.518Z,1.90
2023-04-30T14:06:57.603Z,2.03
2023-04-30T14:09:44.054Z,2.17
2023-04-30T14:12:31.621Z,1.80
2023-04-30T14:15:18.250Z,1.80
2023-04-30T14:18:05.339Z,1.67
2023-04-30T14:20:52.052Z,1.73
2023-04-30T14:23:41.353Z,1.87
2023-04-30T14:26:28.110Z,1.70
2023-04-30T14:29:15.102Z,2.90
2023-04-30T14:32:02.491Z,1.87
2023-04-30T14:34:49.092Z,1.77
2023-04-30T14:37:35.905Z,1.90
2023-04-30T14:40:24.559Z,1.90
2023-04-30T14:43:11.252Z,2.40
2023-04-30T14:45:58.282Z,1.70
2023-04-30T14:48:45.377Z,1.70
2023-04-30T14:51:32.458Z,3.10
2023-04-30T14:54:19.140Z,1.87
2023-04-30T14:57:08.294Z,1.80
2023-04-30T14:59:57.781Z,1.70
2023-04-30T15:02:44.666Z,2.00
2023-04-30T15:05:31.319Z,1.90
2023-04-30T15:08:17.930Z,1.90
2023-04-30T15:11:07.077Z,1.70
2023-04-30T15:13:55.538Z,1.80
2023-04-30T15:16:42.251Z,1.70
2023-04-30T15:19:28.844Z,2.00
2023-04-30T15:22:16.368Z,1.60
2023-04-30T15:25:03.994Z,1.63
2023-04-30T15:27:51.856Z,1.73
2023-04-30T15:30:40.222Z,2.20
2023-04-30T15:33:28.875Z,2.00
2023-04-30T15:36:15.756Z,1.67
2023-04-30T15:39:02.551Z,1.90
2023-04-30T15:41:49.283Z,2.03
2023-04-30T15:44:35.951Z,2.10
2023-04-30T15:47:24.343Z,2.30
2023-04-30T15:50:11.043Z,1.90
2023-04-30T15:52:57.620Z,1.70
2023-04-30T15:55:44.525Z,2.00
2023-04-30T15:58:31.394Z,2.10
2023-04-30T16:01:18.625Z,1.80
2023-04-30T16:04:07.233Z,1.80
2023-04-30T16:06:54.753Z,2.00
2023-04-30T16:09:41.959Z,1.60
2023-04-30T16:12:28.602Z,1.97
2023-04-30T16:15:15.073Z,1.80
2023-04-30T16:18:02.104Z,2.20
2023-04-30T16:20:50.097Z,1.90
2023-04-30T16:23:36.843Z,2.03
2023-04-30T16:26:23.462Z,1.90
2023-04-30T16:29:10.349Z,1.67
2023-04-30T16:31:57.469Z,2.30
2023-04-30T16:34:43.937Z,1.90
2023-04-30T16:37:32.185Z,2.23
2023-04-30T16:40:18.911Z,1.80
2023-04-30T16:43:06.287Z,1.80
2023-04-30T16:45:53.913Z,2.10
2023-04-30T16:48:40.888Z,1.70
2023-04-30T16:51:27.924Z,2.10
2023-04-30T16:54:16.204Z,2.27
2023-04-30T16:57:04.820Z,2.17
2023-04-30T16:59:51.370Z,2.20
2023-04-30T17:02:38.637Z,2.40
2023-04-30T17:05:25.233Z,2.13
2023-04-30T17:08:11.822Z,2.13
2023-04-30T17:10:59.770Z,1.97
2023-04-30T17:13:46.671Z,2.20
2023-04-30T17:16:33.682Z,2.20
2023-04-30T17:19:20.377Z,2.10
2023-04-30T17:22:07.526Z,2.10
2023-04-30T17:24:54.148Z,2.03
2023-04-30T17:27:47.995Z,2.03
2023-04-30T17:30:36.733Z,2.70
2023-04-30T17:33:26.353Z,3.17
2023-04-30T17:36:14.683Z,4.73
2023-04-30T17:39:05.660Z,4.00
2023-04-30T17:41:52.099Z,5.27
2023-04-30T17:44:40.154Z,5.63
2023-04-30T17:47:28.889Z,4.30
2023-04-30T17:50:18.692Z,2.87
2023-04-30T17:53:07.228Z,3.20
2023-04-30T17:55:55.466Z,2.87
2023-04-30T17:58:42.184Z,3.17
2023-04-30T18:01:31.568Z,3.20
2023-04-30T18:04:19.751Z,2.87
2023-04-30T18:07:08.456Z,4.00
2023-04-30T18:09:57.080Z,3.87
2023-04-30T18:12:48.662Z,4.67
2023-04-30T18:15:35.458Z,4.80
2023-04-30T18:18:29.029Z,5.50
2023-04-30T18:21:15.792Z,5.40
2023-04-30T18:24:02.770Z,4.10
2023-04-30T18:26:49.170Z,5.53
2023-04-30T18:29:36.568Z,4.70
2023-04-30T18:32:23.180Z,8.00
2023-04-30T18:35:11.921Z,7.03
2023-04-30T18:37:59.269Z,7.30
2023-04-30T18:40:46.074Z,6.23
2023-04-30T18:43:33.278Z,4.10
2023-04-30T18:46:19.860Z,3.37
2023-04-30T18:49:06.823Z,3.33
2023-04-30T18:51:55.450Z,3.20
2023-04-30T18:54:42.472Z,2.30
2023-04-30T18:57:29.115Z,2.33
2023-04-30T19:00:16.336Z,2.40
2023-04-30T19:03:03.429Z,2.30
2023-04-30T19:05:54.888Z,2.30
2023-04-30T19:08:45.611Z,2.43
2023-04-30T19:11:35.608Z,2.50
2023-04-30T19:14:22.453Z,2.40
2023-04-30T19:17:09.370Z,2.70
2023-04-30T19:20:00.494Z,2.40
2023-04-30T19:22:50.298Z,2.30
2023-04-30T19:25:40.674Z,2.30
2023-04-30T19:28:29.932Z,2.20
2023-04-30T19:31:18.209Z,2.10
2023-04-30T19:34:06.268Z,2.27
2023-04-30T19:36:54.258Z,2.40
2023-04-30T19:39:42.374Z,2.07
2023-04-30T19:42:33.249Z,2.37
2023-04-30T19:45:20.307Z,2.50
2023-04-30T19:48:07.864Z,2.53
2023-04-30T19:50:55.039Z,2.47
2023-04-30T19:53:41.836Z,2.50
2023-04-30T19:56:28.618Z,3.10
2023-04-30T19:59:19.103Z,3.57
2023-04-30T20:02:06.119Z,3.20
2023-04-30T20:04:52.801Z,2.67
2023-04-30T20:07:39.773Z,3.17
2023-04-30T20:10:26.629Z,2.93
2023-04-30T20:13:13.658Z,3.47
2023-04-30T20:16:02.465Z,3.37
2023-04-30T20:18:49.247Z,2.93
2023-04-30T20:21:36.144Z,3.20
2023-04-30T20:24:23.359Z,3.77
2023-04-30T20:27:09.879Z,3.40
2023-04-30T20:29:56.851Z,6.20
2023-04-30T20:32:45.238Z,8.73
2023-04-30T20:35:32.252Z,9.83
2023-04-30T20:38:20.003Z,9.37
2023-04-30T20:41:07.066Z,7.43
2023-04-30T20:43:54.205Z,7.73
2023-04-30T20:46:40.869Z,7.40
2023-04-30T20:49:28.907Z,7.97
2023-04-30T20:52:15.952Z,7.93
2023-04-30T20:55:02.584Z,8.30
2023-04-30T20:57:50.333Z,7.70
2023-04-30T21:00:37.421Z,8.03
2023-04-30T21:03:24.326Z,7.33
2023-04-30T21:06:12.369Z,7.20
2023-04-30T21:08:59.150Z,7.40
2023-04-30T21:11:45.664Z,6.23
2023-04-30T21:14:32.642Z,6.17
2023-04-30T21:17:20.691Z,5.97
2023-04-30T21:20:18.789Z,5.63
2023-04-30T21:23:08.623Z,6.40
2023-04-30T21:25:55.666Z,6.23
2023-04-30T21:28:42.250Z,6.50
2023-04-30T21:31:29.479Z,5.90
2023-04-30T21:34:15.982Z,6.50
2023-04-30T21:37:03.460Z,7.03
2023-04-30T21:39:51.503Z,6.30
2023-04-30T21:42:38.281Z,6.80
2023-04-30T21:45:25.119Z,7.37
2023-04-30T21:48:12.119Z,7.87
2023-04-30T21:50:58.852Z,7.80
2023-04-30T21:53:46.572Z,7.23
2023-04-30T21:56:34.657Z,7.83
2023-04-30T21:59:22.117Z,7.10
2023-04-30T22:02:20.341Z,6.23
2023-04-30T22:05:10.621Z,6.80
2023-04-30T22:07:57.849Z,6.90
2023-04-30T22:10:44.466Z,5.60
2023-04-30T22:13:56.885Z,5.43
2023-04-30T22:16:52.739Z,5.03
2023-04-30T22:19:50.539Z,5.27
2023-04-30T22:22:46.384Z,4.80
2023-04-30T22:25:56.100Z,4.23
2023-04-30T22:29:00.251Z,4.20
2023-04-30T22:32:06.144Z,4.10
2023-04-30T22:35:24.080Z,4.37
2023-04-30T22:38:27.588Z,4.73
2023-04-30T22:41:27.297Z,3.97
2023-04-30T22:44:16.701Z,3.80
2023-04-30T22:47:04.155Z,4.50
2023-04-30T22:49:51.148Z,4.70
2023-04-30T22:52:37.968Z,4.43
2023-04-30T22:55:25.144Z,4.73
2023-04-30T22:58:11.623Z,5.00
2023-04-30T23:00:59.718Z,4.10
2023-04-30T23:03:46.591Z,4.87
2023-04-30T23:06:33.540Z,4.03
2023-04-30T23:09:20.275Z,4.70
2023-04-30T23:12:07.225Z,4.77
2023-04-30T23:14:54.388Z,5.30
2023-04-30T23:17:42.299Z,4.43
2023-04-30T23:20:28.991Z,3.63
2023-04-30T23:23:15.743Z,4.23
2023-04-30T23:26:02.494Z,4.63
2023-04-30T23:28:49.200Z,4.30
2023-04-30T23:31:36.080Z,4.33
2023-04-30T23:34:24.117Z,3.87
2023-04-30T23:37:10.770Z,4.20
2023-04-30T23:39:57.947Z,4.73
2023-04-30T23:42:45.018Z,4.67
2023-04-30T23:45:31.936Z,4.53
2023-04-30T23:48:18.582Z,4.23
2023-04-30T23:51:08.479Z,4.50
2023-04-30T23:53:55.005Z,4.40
2023-04-30T23:56:41.775Z,4.17
2023-04-30T23:59:28.527Z,4.63
